Time;durP1;ratioP1;P1;durP2;ratioP2;P2;SDS_P1;SDS_P2;PMS_P1;PMS_P2;Temp;Humidity;BMP_temperature;BMP_pressure;BME280_temperature;BME280_humidity;BME280_pressure;Samples;Min_cycle;Max_cycle;Signal;HPM_P1;HPM_P2
2021/09/18 00:02:43;;;;;;;10.08;8.30;;;;;;;13.37;91.40;98357.83;2314528;76;21018;-81
2021/09/18 00:05:44;;;;;;;11.10;8.88;;;;;;;13.38;91.27;98359.56;2315066;77;20952;-81
2021/09/18 00:08:44;;;;;;;10.05;8.63;;;;;;;13.39;91.46;98359.99;2311253;76;20987;-80
2021/09/18 00:11:45;;;;;;;13.70;8.43;;;;;;;13.38;91.63;98356.94;2311651;76;20932;-81
2021/09/18 00:14:46;;;;;;;11.50;8.30;;;;;;;13.38;91.64;98356.94;2311541;77;20980;-81
2021/09/18 00:17:46;;;;;;;9.90;8.75;;;;;;;13.37;91.50;98357.38;2318708;76;21354;-82
2021/09/18 00:20:47;;;;;;;10.55;8.63;;;;;;;13.35;91.94;98360.45;2317251;76;20972;-81
2021/09/18 00:23:47;;;;;;;9.68;8.63;;;;;;;13.34;91.77;98360.02;2312547;76;21000;-82
2021/09/18 00:26:48;;;;;;;9.90;9.00;;;;;;;13.35;91.87;98360.45;2310953;76;20952;-82
2021/09/18 00:29:48;;;;;;;9.75;8.65;;;;;;;13.37;91.74;98357.83;2321579;76;20900;-82
2021/09/18 00:32:49;;;;;;;10.32;9.33;;;;;;;13.33;91.82;98354.35;2314277;74;21007;-81
2021/09/18 00:35:49;;;;;;;12.13;9.80;;;;;;;13.34;92.09;98353.91;2312512;76;20967;-81
2021/09/18 00:38:53;;;;;;;11.38;10.28;;;;;;;13.33;92.11;98353.05;2310581;76;20940;-81
2021/09/18 00:41:53;;;;;;;11.00;10.03;;;;;;;13.32;92.20;98347.37;2312023;76;21008;-82
2021/09/18 00:44:54;;;;;;;12.90;11.60;;;;;;;13.33;91.88;98350.42;2319425;77;20916;-82
2021/09/18 00:47:54;;;;;;;12.73;10.32;;;;;;;13.35;92.19;98353.03;2320872;76;20972;-81
2021/09/18 00:50:55;;;;;;;12.13;10.93;;;;;;;13.34;92.06;98353.47;2283546;76;20928;-81
2021/09/18 00:53:55;;;;;;;11.73;10.53;;;;;;;13.35;92.14;98348.66;2373672;75;20933;-82
2021/09/18 00:56:56;;;;;;;13.22;11.88;;;;;;;13.35;92.29;98349.97;2333486;75;20951;-80
2021/09/18 01:00:03;;;;;;;13.05;11.70;;;;;;;13.34;92.60;98346.05;2375474;75;20929;-81
2021/09/18 01:02:59;;;;;;;14.10;11.25;;;;;;;13.33;92.15;98346.93;2375053;75;21008;-82
2021/09/18 01:05:59;;;;;;;12.40;11.22;;;;;;;13.33;92.60;98349.11;2289815;77;20963;-81
2021/09/18 01:09:00;;;;;;;14.43;11.22;;;;;;;13.32;92.79;98347.37;2331146;75;20920;-81
2021/09/18 01:12:00;;;;;;;15.58;11.78;;;;;;;13.30;92.63;98354.37;2326718;76;20939;-81
2021/09/18 01:15:01;;;;;;;13.65;12.13;;;;;;;13.30;92.64;98350.44;2301415;77;20917;-81
2021/09/18 01:18:02;;;;;;;13.68;12.28;;;;;;;13.31;92.85;98350.00;2276427;76;20931;-80
2021/09/18 01:21:03;;;;;;;13.03;11.45;;;;;;;13.31;93.20;98352.63;2317904;76;21027;-81
2021/09/18 01:24:04;;;;;;;11.63;10.43;;;;;;;13.28;93.09;98349.58;2309829;76;20982;-81
2021/09/18 01:27:04;;;;;;;12.33;11.05;;;;;;;13.26;93.60;98347.41;2315724;76;21003;-80
2021/09/18 01:30:05;;;;;;;12.78;11.28;;;;;;;13.24;93.82;98345.24;2315192;76;20920;-82
2021/09/18 01:33:06;;;;;;;11.60;10.23;;;;;;;13.22;93.70;98343.52;2277451;77;21295;-81
2021/09/18 01:36:06;;;;;;;11.22;10.13;;;;;;;13.22;93.65;98336.96;2312901;75;20963;-81
2021/09/18 01:39:07;;;;;;;11.33;10.05;;;;;;;13.20;93.89;98338.28;2313681;76;20943;-82
2021/09/18 01:42:07;;;;;;;11.88;10.63;;;;;;;13.20;94.09;98342.22;2315749;76;20935;-80
2021/09/18 01:45:08;;;;;;;12.33;10.70;;;;;;;13.17;94.06;98337.44;2311436;76;21387;-80
2021/09/18 01:48:09;;;;;;;10.93;9.90;;;;;;;13.17;93.93;98328.27;2317574;76;20936;-81
2021/09/18 01:51:13;;;;;;;12.25;9.25;;;;;;;13.17;94.40;98333.06;2315407;76;21030;-81
2021/09/18 01:54:12;;;;;;;10.20;8.83;;;;;;;13.16;94.28;98319.50;2310467;77;21419;-82
2021/09/18 01:57:12;;;;;;;8.95;8.10;;;;;;;13.16;94.60;98326.48;2314637;76;20943;-81
2021/09/18 02:00:13;;;;;;;10.43;8.85;;;;;;;13.15;94.42;98324.30;2307675;77;21332;-81
2021/09/18 02:03:13;;;;;;;7.95;7.20;;;;;;;13.15;93.93;98322.13;2275870;77;20955;-81
2021/09/18 02:06:16;;;;;;;7.72;7.03;;;;;;;13.17;94.10;98320.40;2292252;76;20949;-81
2021/09/18 02:09:16;;;;;;;8.75;7.87;;;;;;;13.16;94.61;98324.73;2285962;77;21412;-80
2021/09/18 02:12:17;;;;;;;9.80;7.83;;;;;;;13.15;94.55;98320.38;2287773;77;20929;-80
2021/09/18 02:15:17;;;;;;;9.45;7.83;;;;;;;13.13;94.46;98320.83;2291017;77;21426;-81
2021/09/18 02:18:18;;;;;;;9.13;8.23;;;;;;;13.12;94.50;98325.64;2299345;76;20948;-81
2021/09/18 02:21:18;;;;;;;11.03;9.40;;;;;;;13.13;94.98;98326.06;2274772;77;21018;-81
2021/09/18 02:24:19;;;;;;;9.85;8.83;;;;;;;13.15;94.33;98319.50;2314032;75;21007;-81
2021/09/18 02:27:19;;;;;;;10.90;9.90;;;;;;;13.16;94.34;98321.25;2297933;77;21004;-81
2021/09/18 02:30:20;;;;;;;11.12;9.73;;;;;;;13.16;94.08;98316.87;2316186;75;20924;-81
2021/09/18 02:33:20;;;;;;;12.25;10.93;;;;;;;13.16;94.57;98314.25;2314986;76;21303;-81
2021/09/18 02:36:21;;;;;;;10.25;9.35;;;;;;;13.15;94.68;98315.13;2279989;77;20969;-80
2021/09/18 02:39:21;;;;;;;11.05;9.63;;;;;;;13.15;94.71;98310.33;2282942;76;20942;-81
2021/09/18 02:42:22;;;;;;;9.68;8.88;;;;;;;13.13;94.85;98311.66;2277030;76;20950;-81
2021/09/18 02:45:23;;;;;;;13.75;9.78;;;;;;;13.11;94.89;98306.86;2280773;77;20919;-81
2021/09/18 02:48:23;;;;;;;11.12;10.03;;;;;;;13.07;94.78;98312.56;2277151;77;20963;-82
2021/09/18 02:51:24;;;;;;;9.63;8.53;;;;;;;13.06;94.71;98312.58;2316831;75;20936;-80
2021/09/18 02:54:24;;;;;;;9.43;8.63;;;;;;;13.04;94.74;98311.72;2280821;76;21001;-80
2021/09/18 02:57:25;;;;;;;10.08;9.15;;;;;;;13.02;94.80;98312.17;2314278;75;20957;-81
2021/09/18 03:00:25;;;;;;;10.00;9.00;;;;;;;13.01;95.06;98311.73;2307704;77;20943;-81
2021/09/18 03:03:26;;;;;;;9.75;8.75;;;;;;;13.01;94.64;98310.42;2317053;76;20968;-80
2021/09/18 03:06:27;;;;;;;11.00;8.65;;;;;;;12.98;95.22;98313.03;2285887;76;20947;-82
2021/09/18 03:09:27;;;;;;;11.83;10.68;;;;;;;12.95;95.23;98308.69;2317502;76;20965;-82
2021/09/18 03:12:31;;;;;;;10.00;8.75;;;;;;;12.95;95.12;98302.13;2301063;76;20971;-83
2021/09/18 03:15:31;;;;;;;9.60;8.70;;;;;;;12.92;94.92;98298.66;2314791;77;20963;-82
2021/09/18 03:18:32;;;;;;;12.53;7.65;;;;;;;12.88;94.88;98296.94;2319480;76;20947;-81
2021/09/18 03:21:32;;;;;;;8.75;7.97;;;;;;;12.83;94.73;98303.52;2321823;77;20964;-79
2021/09/18 03:24:33;;;;;;;7.45;6.75;;;;;;;12.81;94.99;98302.66;2313583;76;21351;-80
2021/09/18 03:27:33;;;;;;;6.83;6.33;;;;;;;12.80;94.66;98302.66;2313117;77;20951;-80
2021/09/18 03:30:34;;;;;;;8.43;7.03;;;;;;;12.79;94.57;98297.00;2311692;77;20941;-81
2021/09/18 03:33:34;;;;;;;6.65;6.00;;;;;;;12.79;94.63;98298.30;2309284;77;20995;-81
2021/09/18 03:36:35;;;;;;;5.90;5.40;;;;;;;12.76;94.46;98295.27;2318337;76;20967;-80
2021/09/18 03:39:35;;;;;;;5.37;4.87;;;;;;;12.75;94.11;98301.37;2317081;75;20994;-81
2021/09/18 03:42:36;;;;;;;6.50;5.03;;;;;;;12.72;94.30;98299.65;2311129;77;20969;-80
2021/09/18 03:45:37;;;;;;;4.22;3.83;;;;;;;12.72;94.12;98295.72;2314216;77;21444;-81
2021/09/18 03:48:37;;;;;;;4.60;3.90;;;;;;;12.69;94.23;98297.05;2315482;75;20975;-78
2021/09/18 03:51:38;;;;;;;4.00;3.60;;;;;;;12.69;94.37;98298.80;2307397;76;20989;-78
2021/09/18 03:54:38;;;;;;;5.05;3.25;;;;;;;12.68;94.31;98299.23;2312133;76;21011;-79
2021/09/18 03:57:39;;;;;;;3.77;3.42;;;;;;;12.62;94.50;98295.34;2312136;76;21366;-78
2021/09/18 04:00:39;;;;;;;3.12;2.87;;;;;;;12.58;94.72;98299.29;2312506;76;20955;-78
2021/09/18 04:03:40;;;;;;;3.20;3.00;;;;;;;12.53;94.72;98296.69;2313804;76;20944;-78
2021/09/18 04:06:40;;;;;;;3.72;3.10;;;;;;;12.53;94.93;98302.37;2312986;76;20943;-78
2021/09/18 04:09:41;;;;;;;3.17;2.72;;;;;;;12.51;95.13;98299.76;2313430;76;21367;-78
2021/09/18 04:12:41;;;;;;;2.90;2.70;;;;;;;12.49;94.82;98296.27;2312585;76;20968;-78
2021/09/18 04:15:42;;;;;;;3.02;2.70;;;;;;;12.49;94.98;98292.34;2316086;76;20967;-78
2021/09/18 04:18:43;;;;;;;3.00;2.77;;;;;;;12.47;94.82;98298.03;2311019;76;20961;-77
2021/09/18 04:21:43;;;;;;;2.75;2.52;;;;;;;12.48;94.81;98308.06;2311650;77;20971;-78
2021/09/18 04:24:44;;;;;;;3.08;2.60;;;;;;;12.46;94.94;98300.22;2317322;77;21309;-78
2021/09/18 04:27:44;;;;;;;5.60;2.75;;;;;;;12.44;94.57;98300.66;2309492;77;20980;-79
2021/09/18 04:30:45;;;;;;;3.33;3.03;;;;;;;12.45;94.67;98301.09;2308562;77;20967;-79
2021/09/18 04:33:46;;;;;;;5.40;3.42;;;;;;;12.46;94.73;98304.14;2312274;76;20988;-78
2021/09/18 04:36:47;;;;;;;3.85;3.42;;;;;;;12.46;94.63;98305.89;2312038;77;21111;-78
2021/09/18 04:39:47;;;;;;;3.50;3.10;;;;;;;12.46;94.72;98307.20;2312222;74;21323;-78
2021/09/18 04:42:48;;;;;;;69.92;8.63;;;;;;;12.47;94.28;98307.63;2314111;77;21022;-79
2021/09/18 04:45:48;;;;;;;7.83;3.80;;;;;;;12.89;97.61;98311.78;2316804;76;21003;-80
2021/09/18 04:48:49;;;;;;;3.67;3.35;;;;;;;13.42;92.80;98307.54;2321937;76;22039;-79
2021/09/18 04:51:49;;;;;;;3.75;3.45;;;;;;;13.17;91.69;98316.03;2282384;76;20963;-79
2021/09/18 04:54:53;;;;;;;7.87;3.85;;;;;;;12.91;91.91;98320.05;2375062;75;21304;-78
2021/09/18 04:57:52;;;;;;;4.00;3.70;;;;;;;12.75;92.48;98319.71;2363650;75;20983;-79
2021/09/18 05:00:53;;;;;;;3.98;3.67;;;;;;;12.67;93.01;98322.81;2377348;75;20971;-80
2021/09/18 05:03:53;;;;;;;5.03;4.53;;;;;;;12.59;93.03;98325.46;2287017;77;20965;-79
2021/09/18 05:06:54;;;;;;;5.42;5.00;;;;;;;12.51;93.48;98323.31;2369967;75;20927;-80
2021/09/18 05:09:55;;;;;;;6.80;4.97;;;;;;;12.47;93.45;98321.59;2367676;75;20937;-80
2021/09/18 05:12:56;;;;;;;8.38;5.83;;;;;;;12.48;93.77;98332.93;2362630;75;20963;-80
2021/09/18 05:15:56;;;;;;;7.83;7.12;;;;;;;12.45;93.94;98333.81;2370717;75;21387;-79
2021/09/18 05:18:57;;;;;;;12.75;7.55;;;;;;;12.43;94.29;98337.74;2365965;75;20940;-79
2021/09/18 05:21:58;;;;;;;9.53;8.58;;;;;;;12.40;94.08;98340.81;2368276;75;20943;-79
2021/09/18 05:24:58;;;;;;;9.58;8.78;;;;;;;12.38;94.45;98342.56;2273735;76;20960;-80
2021/09/18 05:27:59;;;;;;;10.75;9.85;;;;;;;12.37;94.80;98339.52;2312814;75;21342;-80
2021/09/18 05:30:59;;;;;;;10.75;9.68;;;;;;;12.34;95.09;98346.06;2312685;75;20972;-79
2021/09/18 05:34:00;;;;;;;11.35;10.35;;;;;;;12.32;95.45;98343.45;2313220;75;20971;-80
2021/09/18 05:37:00;;;;;;;11.55;10.55;;;;;;;12.29;95.47;98348.70;2313695;76;20955;-80
2021/09/18 05:40:01;;;;;;;11.10;10.00;;;;;;;12.32;95.59;98355.67;2314602;76;20971;-80
2021/09/18 05:43:02;;;;;;;12.03;10.93;;;;;;;12.33;95.40;98349.56;2315139;75;21315;-80
2021/09/18 05:46:02;;;;;;;10.82;9.90;;;;;;;12.35;95.21;98347.37;2275542;76;20964;-79
2021/09/18 05:49:03;;;;;;;12.23;11.03;;;;;;;12.35;95.43;98347.80;2289610;76;20991;-80
2021/09/18 05:52:06;;;;;;;12.90;11.75;;;;;;;12.36;95.09;98346.49;2375541;75;21017;-80
2021/09/18 05:55:07;;;;;;;13.50;12.30;;;;;;;12.40;95.07;98347.36;2327784;75;20971;-80
2021/09/18 05:58:07;;;;;;;13.05;11.85;;;;;;;12.42;94.96;98349.53;2304600;76;20983;-79
2021/09/18 06:01:08;;;;;;;13.70;12.30;;;;;;;12.46;94.50;98351.70;2313781;75;21323;-80
2021/09/18 06:04:08;;;;;;;13.53;12.13;;;;;;;12.48;94.35;98346.89;2314056;76;20976;-80
2021/09/18 06:07:09;;;;;;;13.25;11.95;;;;;;;12.51;94.05;98351.24;2282657;76;20946;-80
2021/09/18 06:10:10;;;;;;;12.30;11.27;;;;;;;12.55;93.93;98342.50;2314145;77;20948;-80
2021/09/18 06:13:13;;;;;;;12.10;11.00;;;;;;;12.58;93.66;98343.80;2313103;76;20990;-79
2021/09/18 06:16:14;;;;;;;15.40;11.30;;;;;;;12.58;93.52;98351.66;2315241;76;21042;-80
2021/09/18 06:19:18;;;;;;;13.22;11.90;;;;;;;12.57;93.62;98350.78;2315772;75;20962;-80
2021/09/18 06:22:17;;;;;;;12.47;11.25;;;;;;;12.60;93.38;98347.28;2289977;76;21063;-80
2021/09/18 06:25:18;;;;;;;15.05;11.93;;;;;;;12.65;93.26;98357.30;2311679;77;21442;-80
2021/09/18 06:28:18;;;;;;;12.73;11.65;;;;;;;12.69;93.26;98354.66;2275315;77;21006;-79
2021/09/18 06:31:19;;;;;;;13.95;12.75;;;;;;;12.72;92.89;98358.57;2312506;77;21003;-79
2021/09/18 06:34:19;;;;;;;13.50;12.23;;;;;;;12.73;92.66;98359.00;2278764;76;20963;-79
2021/09/18 06:37:20;;;;;;;12.25;11.03;;;;;;;12.73;92.35;98356.82;2374498;75;21328;-80
2021/09/18 06:40:20;;;;;;;15.00;12.03;;;;;;;12.75;91.96;98361.61;2284588;77;20993;-79
2021/09/18 06:43:21;;;;;;;12.85;11.65;;;;;;;12.71;91.80;98355.52;2317155;75;20907;-78
2021/09/18 06:46:22;;;;;;;13.50;12.18;;;;;;;12.69;91.60;98356.41;2298193;76;20953;-79
2021/09/18 06:49:23;;;;;;;12.95;11.85;;;;;;;12.68;91.82;98359.90;2319698;75;20951;-79
2021/09/18 06:52:23;;;;;;;13.22;12.03;;;;;;;12.70;91.82;98361.63;2371045;75;20958;-80
2021/09/18 06:55:24;;;;;;;12.30;11.22;;;;;;;12.72;91.87;98357.26;2281203;76;21026;-79
2021/09/18 06:58:24;;;;;;;13.08;11.90;;;;;;;12.76;91.45;98359.42;2324023;75;20945;-80
2021/09/18 07:01:27;;;;;;;12.15;11.05;;;;;;;12.79;91.07;98362.03;2369673;75;21430;-81
2021/09/18 07:04:27;;;;;;;13.03;11.93;;;;;;;12.82;91.32;98365.95;2333832;75;21070;-80
2021/09/18 07:07:29;;;;;;;12.23;11.22;;;;;;;12.86;91.18;98368.98;2364573;75;20918;-80
2021/09/18 07:10:30;;;;;;;12.93;11.83;;;;;;;12.89;91.42;98361.55;2372670;75;20993;-80
2021/09/18 07:13:30;;;;;;;13.15;11.95;;;;;;;12.90;91.62;98364.59;2364555;75;20926;-81
2021/09/18 07:16:31;;;;;;;12.15;11.05;;;;;;;12.93;91.88;98362.83;2374336;75;20949;-80
2021/09/18 07:19:31;;;;;;;10.88;9.98;;;;;;;12.96;91.78;98364.56;2315569;75;21296;-81
2021/09/18 07:22:32;;;;;;;12.63;11.60;;;;;;;13.02;91.49;98368.50;2285915;77;20916;-81
2021/09/18 07:25:32;;;;;;;10.48;9.48;;;;;;;13.05;91.58;98369.78;2291796;76;21030;-81
2021/09/18 07:28:36;;;;;;;11.38;10.30;;;;;;;12.98;91.38;98366.30;2327792;75;20952;-81
2021/09/18 07:31:36;;;;;;;10.82;9.93;;;;;;;12.95;91.46;98371.99;2356050;75;21442;-82
2021/09/18 07:34:37;;;;;;;10.48;9.50;;;;;;;12.95;91.85;98371.99;2356097;75;20994;-81
2021/09/18 07:37:37;;;;;;;11.93;10.82;;;;;;;12.93;92.21;98375.06;2362290;75;21344;-81
2021/09/18 07:40:38;;;;;;;10.70;9.80;;;;;;;12.84;92.10;98380.34;2332790;74;20980;-81
2021/09/18 07:43:39;;;;;;;10.58;9.68;;;;;;;12.82;92.05;98376.86;2318965;74;20943;-82
2021/09/18 07:46:39;;;;;;;11.80;10.80;;;;;;;12.72;91.94;98386.06;2299342;77;20952;-82
2021/09/18 07:49:41;;;;;;;11.55;10.45;;;;;;;12.67;92.07;98384.34;2294719;76;20928;-82
2021/09/18 07:52:42;;;;;;;10.65;9.73;;;;;;;12.61;92.21;98379.13;2335097;75;21015;-81
2021/09/18 07:55:42;;;;;;;10.35;9.35;;;;;;;12.57;92.15;98379.58;2371713;75;20952;-81
2021/09/18 07:58:43;;;;;;;10.93;9.73;;;;;;;12.58;92.40;98379.14;2363943;75;20980;-81
2021/09/18 08:01:46;;;;;;;10.68;9.78;;;;;;;12.55;92.34;98380.02;2339466;75;20906;-81
2021/09/18 08:04:46;;;;;;;10.23;9.23;;;;;;;12.62;92.52;98379.13;2363054;75;21358;-82
2021/09/18 08:07:47;;;;;;;10.72;9.58;;;;;;;12.65;92.46;98376.94;2361113;75;20970;-82
2021/09/18 08:10:47;;;;;;;8.68;7.97;;;;;;;12.68;92.21;98377.79;2277427;77;21438;-83
2021/09/18 08:13:48;;;;;;;9.60;8.80;;;;;;;12.73;92.14;98381.27;2368808;75;20927;-81
2021/09/18 08:16:49;;;;;;;9.05;8.20;;;;;;;12.76;91.73;98379.94;2362591;75;20951;-80
2021/09/18 08:19:49;;;;;;;8.40;7.60;;;;;;;12.79;91.60;98378.19;2360144;75;20978;-81
2021/09/18 08:22:50;;;;;;;9.25;8.55;;;;;;;12.75;91.45;98372.95;2368571;75;21292;-80
2021/09/18 08:25:50;;;;;;;7.92;7.17;;;;;;;12.74;91.67;98379.08;2368653;74;20970;-80
2021/09/18 08:28:51;;;;;;;7.53;6.90;;;;;;;12.77;91.87;98380.81;2361634;75;20936;-80
2021/09/18 08:31:51;;;;;;;8.68;7.37;;;;;;;12.76;91.79;98377.76;2363605;75;21283;-80
2021/09/18 08:34:53;;;;;;;8.70;7.90;;;;;;;12.82;91.73;98379.48;2369177;75;20988;-80
2021/09/18 08:37:53;;;;;;;9.25;8.53;;;;;;;12.95;91.57;98390.33;2364493;75;21327;-81
2021/09/18 08:40:54;;;;;;;9.10;8.20;;;;;;;13.03;91.32;98382.03;2367935;75;20936;-82
2021/09/18 08:43:54;;;;;;;10.68;9.03;;;;;;;13.14;91.07;98390.70;2371206;75;20944;-82
2021/09/18 08:46:55;;;;;;;7.92;7.22;;;;;;;13.15;90.79;98385.89;2300540;76;20981;-82
2021/09/18 08:49:55;;;;;;;9.15;8.35;;;;;;;13.18;90.51;98383.28;2341706;74;20941;-81
2021/09/18 08:52:56;;;;;;;7.53;6.85;;;;;;;13.22;90.79;98392.00;2362078;75;20964;-82
2021/09/18 08:55:56;;;;;;;6.70;6.08;;;;;;;13.22;90.51;98385.45;2353617;75;20986;-81
2021/09/18 08:58:57;;;;;;;5.78;5.20;;;;;;;13.23;90.52;98383.25;2359082;75;20944;-81
2021/09/18 09:01:58;;;;;;;6.65;6.15;;;;;;;13.20;90.32;98389.83;2280863;76;20926;-81
2021/09/18 09:04:58;;;;;;;6.87;6.37;;;;;;;13.21;90.63;98396.38;2317201;75;20955;-81
2021/09/18 09:07:59;;;;;;;7.75;7.15;;;;;;;13.18;90.68;98397.70;2307451;76;20952;-80
2021/09/18 09:10:59;;;;;;;7.92;7.25;;;;;;;13.27;90.91;98408.13;2316795;76;20995;-81
2021/09/18 09:14:00;;;;;;;7.03;6.42;;;;;;;13.34;90.42;98403.28;2298095;76;20975;-81
2021/09/18 09:17:03;;;;;;;7.65;7.00;;;;;;;13.33;89.96;98397.61;2372340;75;20960;-81
2021/09/18 09:20:03;;;;;;;7.78;7.08;;;;;;;13.32;90.23;98399.80;2367175;75;21042;-82
2021/09/18 09:23:03;;;;;;;8.13;7.33;;;;;;;13.28;89.84;98403.31;2360424;75;20895;-81
2021/09/18 09:26:06;;;;;;;7.50;6.90;;;;;;;13.24;90.19;98399.41;2334323;75;20936;-81
2021/09/18 09:29:06;;;;;;;7.67;7.03;;;;;;;13.19;90.13;98403.37;2286637;76;20964;-80
2021/09/18 09:32:07;;;;;;;6.33;5.75;;;;;;;13.13;90.06;98406.43;2309588;76;20933;-81
2021/09/18 09:35:07;;;;;;;7.03;6.37;;;;;;;13.05;90.43;98402.09;2317848;76;20960;-80
2021/09/18 09:38:08;;;;;;;12.45;6.95;;;;;;;13.02;90.82;98403.86;2311247;76;21374;-81
2021/09/18 09:41:09;;;;;;;9.98;6.95;;;;;;;13.05;90.56;98400.79;2311659;77;21004;-80
2021/09/18 09:44:09;;;;;;;7.22;5.85;;;;;;;13.13;90.53;98405.12;2317420;76;20944;-80
2021/09/18 09:50:12;;;;;;;6.78;5.92;;;;;;;13.22;90.39;98396.80;2287367;76;21011;-80
2021/09/18 09:53:13;;;;;;;6.80;6.10;;;;;;;13.27;89.88;98405.50;2315006;77;20935;-81
2021/09/18 09:56:13;;;;;;;7.90;7.28;;;;;;;13.20;89.79;98401.18;2318144;76;21347;-80
2021/09/18 09:59:14;;;;;;;8.13;7.50;;;;;;;13.20;90.10;98393.76;2313845;76;21039;-80
2021/09/18 10:02:14;;;;;;;11.08;8.83;;;;;;;13.22;89.49;98395.48;2314315;76;21396;-80
2021/09/18 10:05:15;;;;;;;8.70;8.00;;;;;;;13.18;89.60;98399.01;2280472;77;20950;-80
2021/09/18 10:08:15;;;;;;;11.40;8.63;;;;;;;13.17;89.75;98394.64;2299855;76;20990;-80
2021/09/18 10:11:16;;;;;;;14.05;9.20;;;;;;;13.16;89.46;98397.24;2288968;77;21023;-80
2021/09/18 10:14:19;;;;;;;8.78;7.97;;;;;;;13.16;89.51;98398.11;2313638;76;20963;-80
2021/09/18 10:17:19;;;;;;;10.05;8.75;;;;;;;13.18;89.62;98397.70;2315543;77;21047;-80
2021/09/18 10:23:23;;;;;;;10.60;9.48;;;;;;;13.20;89.10;98403.80;2286614;77;21027;-80
2021/09/18 10:26:23;;;;;;;10.40;9.50;;;;;;;13.23;89.56;98406.84;2313775;77;20966;-80
2021/09/18 10:29:24;;;;;;;10.85;9.78;;;;;;;13.27;89.14;98401.58;2283700;77;20990;-81
2021/09/18 10:32:24;;;;;;;10.10;9.13;;;;;;;13.35;88.81;98413.33;2312829;76;20970;-82
2021/09/18 10:35:25;;;;;;;10.32;9.33;;;;;;;13.42;88.44;98403.67;2319309;76;21276;-81
2021/09/18 10:38:25;;;;;;;11.35;9.60;;;;;;;13.44;88.78;98405.84;2316555;77;20982;-81
2021/09/18 10:41:26;;;;;;;12.33;10.08;;;;;;;13.48;88.71;98401.01;2312218;76;20908;-81
2021/09/18 10:44:26;;;;;;;9.63;8.83;;;;;;;13.54;88.38;98399.66;2314021;76;20947;-80
2021/09/18 10:47:27;;;;;;;10.30;9.40;;;;;;;13.68;88.56;98399.11;2320738;77;20927;-81
2021/09/18 10:50:28;;;;;;;9.40;8.53;;;;;;;13.81;87.99;98397.26;2311448;76;20952;-81
2021/09/18 10:53:28;;;;;;;8.15;7.35;;;;;;;13.90;87.68;98403.33;2311248;76;21039;-81
2021/09/18 10:56:29;;;;;;;9.28;8.05;;;;;;;13.82;87.42;98399.87;2314941;77;20971;-80
2021/09/18 10:59:29;;;;;;;10.88;8.05;;;;;;;13.82;87.20;98402.50;2312909;76;20952;-82
2021/09/18 11:02:30;;;;;;;10.23;7.42;;;;;;;13.82;86.50;98401.18;2311619;76;20952;-81
2021/09/18 11:05:30;;;;;;;8.60;7.80;;;;;;;13.80;86.60;98400.33;2308386;75;20948;-80
2021/09/18 11:08:33;;;;;;;7.47;6.85;;;;;;;13.83;86.59;98405.98;2313246;77;21315;-80
2021/09/18 11:11:33;;;;;;;8.50;7.05;;;;;;;13.90;86.41;98404.64;2309259;75;22110;-80
2021/09/18 11:14:34;;;;;;;12.53;7.95;;;;;;;13.98;85.50;98400.64;2315769;76;21264;-80
2021/09/18 11:17:37;;;;;;;8.48;7.60;;;;;;;14.02;85.77;98415.48;2314129;77;20974;-79
2021/09/18 11:20:37;;;;;;;9.10;7.10;;;;;;;13.99;85.92;98408.50;2310616;76;21332;-80
2021/09/18 11:23:38;;;;;;;9.23;8.40;;;;;;;13.99;86.14;98411.12;2317797;77;20983;-82
2021/09/18 11:26:39;;;;;;;8.53;7.80;;;;;;;13.98;86.16;98408.52;2314640;76;21011;-81
2021/09/18 11:29:44;;;;;;;9.10;7.83;;;;;;;14.01;87.07;98409.36;2314728;75;21351;-79
2021/09/18 11:32:41;;;;;;;8.77;8.03;;;;;;;13.94;86.78;98409.42;2308220;77;20927;-80
2021/09/18 11:35:45;;;;;;;7.65;7.05;;;;;;;13.79;87.94;98413.02;2309175;76;20956;-80
2021/09/18 11:38:45;;;;;;;9.80;7.17;;;;;;;13.73;87.78;98415.68;2305714;76;20977;-79
2021/09/18 11:41:46;;;;;;;8.30;7.60;;;;;;;13.71;88.14;98417.00;2307458;77;21323;-82
2021/09/18 11:44:47;;;;;;;9.38;8.45;;;;;;;13.64;88.34;98415.75;2304626;76;20943;-81
2021/09/18 11:47:47;;;;;;;9.25;8.53;;;;;;;13.65;88.43;98416.18;2310074;77;20943;-80
2021/09/18 11:50:48;;;;;;;9.08;8.30;;;;;;;13.67;88.57;98407.42;2313625;77;21358;-81
2021/09/18 11:53:48;;;;;;;8.88;8.08;;;;;;;13.64;88.48;98414.44;2311113;77;20960;-81
2021/09/18 11:56:51;;;;;;;8.23;7.35;;;;;;;13.58;88.67;98415.80;2311950;77;20987;-81
2021/09/18 11:59:51;;;;;;;10.82;9.95;;;;;;;13.57;88.68;98411.43;2314726;76;20988;-81
2021/09/18 12:02:51;;;;;;;9.53;8.63;;;;;;;13.60;88.74;98414.03;2310426;76;21362;-82
2021/09/18 12:05:52;;;;;;;9.73;8.93;;;;;;;13.65;88.72;98410.94;2314311;76;20991;-81
2021/09/18 12:08:52;;;;;;;9.20;8.45;;;;;;;13.67;88.74;98409.17;2316367;76;20986;-81
2021/09/18 12:11:54;;;;;;;10.93;9.75;;;;;;;13.77;88.60;98413.91;2321414;76;21006;-83
2021/09/18 12:14:55;;;;;;;9.78;8.88;;;;;;;13.91;88.56;98414.25;2314044;76;20956;-82
2021/09/18 12:17:55;;;;;;;10.32;9.33;;;;;;;13.98;88.45;98418.56;2313758;76;20921;-82
2021/09/18 12:20:56;;;;;;;9.10;8.30;;;;;;;14.01;88.47;98410.67;2315869;76;20983;-81
2021/09/18 12:23:57;;;;;;;9.88;9.08;;;;;;;14.01;88.25;98408.48;2311929;77;20944;-82
2021/09/18 12:26:57;;;;;;;10.32;8.98;;;;;;;14.00;88.12;98407.62;2314754;76;21067;-81
2021/09/18 12:29:58;;;;;;;9.38;8.50;;;;;;;14.01;88.44;98406.73;2309917;77;21037;-81
2021/09/18 12:32:58;;;;;;;10.15;9.13;;;;;;;13.99;88.62;98412.88;2314537;77;20948;-81
2021/09/18 12:35:58;;;;;;;8.03;7.42;;;;;;;14.00;88.75;98412.00;2314554;76;20999;-81
2021/09/18 12:38:59;;;;;;;9.68;8.78;;;;;;;13.98;88.10;98410.70;2307739;76;21331;-81
2021/09/18 12:41:59;;;;;;;10.43;9.43;;;;;;;14.00;88.52;98406.30;2314032;76;21002;-82
2021/09/18 12:45:00;;;;;;;9.23;8.28;;;;;;;14.13;88.83;98403.57;2313217;76;20936;-82
2021/09/18 12:48:00;;;;;;;8.00;7.22;;;;;;;14.18;88.02;98400.45;2315270;76;20978;-81
2021/09/18 12:51:01;;;;;;;7.92;6.83;;;;;;;14.18;88.00;98403.95;2310613;76;20970;-81
2021/09/18 12:54:02;;;;;;;7.12;6.53;;;;;;;14.21;87.99;98404.36;2315394;77;20925;-82
2021/09/18 12:57:03;;;;;;;6.15;5.65;;;;;;;14.24;88.11;98400.40;2315372;76;20983;-82
2021/09/18 13:00:03;;;;;;;6.17;5.60;;;;;;;14.25;88.03;98391.64;2317748;76;21327;-82
2021/09/18 13:03:04;;;;;;;5.85;5.35;;;;;;;14.30;88.17;98403.83;2313092;76;21288;-82
2021/09/18 13:06:04;;;;;;;5.72;5.22;;;;;;;14.26;87.84;98397.31;2314204;77;20995;-81
2021/09/18 13:09:05;;;;;;;4.60;4.20;;;;;;;14.21;88.26;98397.36;2313176;76;20939;-82
2021/09/18 13:12:05;;;;;;;5.65;5.20;;;;;;;14.16;88.59;98402.23;2312790;76;20971;-82
2021/09/18 13:15:05;;;;;;;6.45;4.78;;;;;;;14.14;88.70;98400.06;2310282;76;20953;-81
2021/09/18 13:18:06;;;;;;;5.28;4.78;;;;;;;14.05;88.75;98393.59;2312776;76;20947;-82
2021/09/18 13:21:06;;;;;;;5.70;4.22;;;;;;;14.00;89.10;98394.50;2309890;76;20955;-82
2021/09/18 13:24:07;;;;;;;4.47;4.08;;;;;;;13.91;89.09;98396.33;2316099;74;21317;-82
2021/09/18 13:27:07;;;;;;;4.40;4.00;;;;;;;13.83;88.92;98400.30;2315543;76;21305;-82
2021/09/18 13:30:08;;;;;;;6.85;4.70;;;;;;;13.91;89.21;98401.14;2315747;77;20986;-83
2021/09/18 13:33:08;;;;;;;5.30;4.80;;;;;;;13.95;89.51;98402.85;2317812;76;20944;-82
2021/09/18 13:36:11;;;;;;;5.22;4.80;;;;;;;14.01;89.49;98399.30;2312710;77;20988;-81
2021/09/18 13:39:11;;;;;;;4.60;4.20;;;;;;;13.94;89.65;98397.17;2316303;77;20982;-82
2021/09/18 13:42:11;;;;;;;5.08;4.58;;;;;;;13.91;89.72;98394.58;2314833;76;20941;-82
2021/09/18 13:45:12;;;;;;;4.80;4.20;;;;;;;13.88;90.17;98392.42;2314498;77;20982;-82
2021/09/18 13:48:12;;;;;;;4.05;3.67;;;;;;;13.88;89.85;98393.73;2317338;76;20990;-82
2021/09/18 13:51:16;;;;;;;4.95;4.55;;;;;;;13.81;90.33;98388.95;2317631;76;20999;-83
2021/09/18 13:54:16;;;;;;;11.30;10.35;;;;;;;13.74;90.87;98389.88;2313048;76;20948;-82
2021/09/18 13:57:16;;;;;;;6.30;5.75;;;;;;;13.70;91.17;98390.78;2313734;77;20975;-82
2021/09/18 14:00:17;;;;;;;5.72;5.25;;;;;;;13.68;91.26;98383.38;2313631;76;20975;-81
2021/09/18 14:03:17;;;;;;;6.92;5.78;;;;;;;13.59;91.43;98383.00;2314439;76;20952;-83
2021/09/18 14:06:18;;;;;;;7.53;6.37;;;;;;;13.55;91.61;98378.66;2313992;76;20953;-82
2021/09/18 14:09:18;;;;;;;5.70;5.03;;;;;;;13.58;91.73;98379.08;2310978;76;20951;-83